sensor_id;sensor_type;location;lat;lon;timestamp;P1;durP1;ratioP1;P2;durP2;ratioP2
16689;SDS011;8458;52.220;9.884;2023-08-06T00:00:12;2.33;;;2.13;;
16689;SDS011;8458;52.220;9.884;2023-08-06T00:02:39;2.53;;;2.43;;
16689;SDS011;8458;52.220;9.884;2023-08-06T00:05:06;2.80;;;2.60;;
16689;SDS011;8458;52.220;9.884;2023-08-06T00:07:32;2.20;;;2.10;;
16689;SDS011;8458;52.220;9.884;2023-08-06T00:09:59;2.43;;;2.33;;
16689;SDS011;8458;52.220;9.884;2023-08-06T00:12:27;2.90;;;2.07;;
16689;SDS011;8458;52.220;9.884;2023-08-06T00:14:53;2.20;;;2.00;;
16689;SDS011;8458;52.220;9.884;2023-08-06T00:17:20;2.60;;;2.50;;
16689;SDS011;8458;52.220;9.884;2023-08-06T00:19:46;2.67;;;2.47;;
16689;SDS011;8458;52.220;9.884;2023-08-06T00:22:13;2.80;;;2.47;;
16689;SDS011;8458;52.220;9.884;2023-08-06T00:24:39;2.93;;;2.73;;
16689;SDS011;8458;52.220;9.884;2023-08-06T00:27:06;2.53;;;2.33;;
16689;SDS011;8458;52.220;9.884;2023-08-06T00:29:34;2.10;;;2.00;;
16689;SDS011;8458;52.220;9.884;2023-08-06T00:32:00;2.20;;;2.10;;
16689;SDS011;8458;52.220;9.884;2023-08-06T00:34:27;3.13;;;2.43;;
16689;SDS011;8458;52.220;9.884;2023-08-06T00:36:53;5.27;;;2.90;;
16689;SDS011;8458;52.220;9.884;2023-08-06T00:39:20;2.70;;;2.50;;
16689;SDS011;8458;52.220;9.884;2023-08-06T00:41:46;2.60;;;2.37;;
16689;SDS011;8458;52.220;9.884;2023-08-06T00:44:13;2.67;;;2.47;;
16689;SDS011;8458;52.220;9.884;2023-08-06T00:46:40;4.00;;;2.80;;
16689;SDS011;8458;52.220;9.884;2023-08-06T00:49:07;7.53;;;2.73;;
16689;SDS011;8458;52.220;9.884;2023-08-06T00:51:34;3.77;;;2.50;;
16689;SDS011;8458;52.220;9.884;2023-08-06T00:54:00;2.60;;;2.40;;
16689;SDS011;8458;52.220;9.884;2023-08-06T00:56:28;2.53;;;2.20;;
16689;SDS011;8458;52.220;9.884;2023-08-06T00:58:54;2.63;;;2.40;;
16689;SDS011;8458;52.220;9.884;2023-08-06T01:01:21;3.73;;;2.30;;
16689;SDS011;8458;52.220;9.884;2023-08-06T01:03:49;6.43;;;2.00;;
16689;SDS011;8458;52.220;9.884;2023-08-06T01:06:16;2.80;;;2.30;;
16689;SDS011;8458;52.220;9.884;2023-08-06T01:08:52;2.70;;;2.50;;
16689;SDS011;8458;52.220;9.884;2023-08-06T01:11:25;3.87;;;2.93;;
16689;SDS011;8458;52.220;9.884;2023-08-06T01:13:59;3.50;;;3.20;;
16689;SDS011;8458;52.220;9.884;2023-08-06T01:16:32;2.70;;;2.50;;
16689;SDS011;8458;52.220;9.884;2023-08-06T01:19:01;3.60;;;2.70;;
16689;SDS011;8458;52.220;9.884;2023-08-06T01:21:28;3.47;;;2.87;;
16689;SDS011;8458;52.220;9.884;2023-08-06T01:23:55;2.80;;;2.60;;
16689;SDS011;8458;52.220;9.884;2023-08-06T01:26:23;2.37;;;2.20;;
16689;SDS011;8458;52.220;9.884;2023-08-06T01:28:55;7.23;;;2.57;;
16689;SDS011;8458;52.220;9.884;2023-08-06T01:31:26;3.77;;;2.47;;
16689;SDS011;8458;52.220;9.884;2023-08-06T01:33:56;2.40;;;2.30;;
16689;SDS011;8458;52.220;9.884;2023-08-06T01:36:24;7.90;;;2.20;;
16689;SDS011;8458;52.220;9.884;2023-08-06T01:38:53;1.93;;;1.73;;
16689;SDS011;8458;52.220;9.884;2023-08-06T01:41:20;7.47;;;2.30;;
16689;SDS011;8458;52.220;9.884;2023-08-06T01:43:47;2.30;;;1.80;;
16689;SDS011;8458;52.220;9.884;2023-08-06T01:46:13;4.13;;;2.13;;
16689;SDS011;8458;52.220;9.884;2023-08-06T01:48:39;2.77;;;1.93;;
16689;SDS011;8458;52.220;9.884;2023-08-06T01:51:06;2.30;;;2.10;;
16689;SDS011;8458;52.220;9.884;2023-08-06T01:53:33;2.47;;;2.27;;
16689;SDS011;8458;52.220;9.884;2023-08-06T01:56:01;3.03;;;1.93;;
16689;SDS011;8458;52.220;9.884;2023-08-06T01:58:27;3.33;;;2.13;;
16689;SDS011;8458;52.220;9.884;2023-08-06T02:00:54;2.70;;;2.13;;
16689;SDS011;8458;52.220;9.884;2023-08-06T02:03:20;3.03;;;2.20;;
16689;SDS011;8458;52.220;9.884;2023-08-06T02:05:47;3.97;;;1.83;;
16689;SDS011;8458;52.220;9.884;2023-08-06T02:08:13;2.87;;;2.27;;
16689;SDS011;8458;52.220;9.884;2023-08-06T02:10:39;2.40;;;2.13;;
16689;SDS011;8458;52.220;9.884;2023-08-06T02:13:08;3.20;;;2.33;;
16689;SDS011;8458;52.220;9.884;2023-08-06T02:15:34;2.37;;;2.23;;
16689;SDS011;8458;52.220;9.884;2023-08-06T02:18:00;2.67;;;2.37;;
16689;SDS011;8458;52.220;9.884;2023-08-06T02:20:27;3.00;;;2.53;;
16689;SDS011;8458;52.220;9.884;2023-08-06T02:22:53;4.00;;;2.30;;
16689;SDS011;8458;52.220;9.884;2023-08-06T02:25:20;3.27;;;2.10;;
16689;SDS011;8458;52.220;9.884;2023-08-06T02:27:46;2.33;;;1.93;;
16689;SDS011;8458;52.220;9.884;2023-08-06T02:30:14;2.37;;;2.17;;
16689;SDS011;8458;52.220;9.884;2023-08-06T02:32:40;2.77;;;2.20;;
16689;SDS011;8458;52.220;9.884;2023-08-06T02:35:07;2.80;;;2.20;;
16689;SDS011;8458;52.220;9.884;2023-08-06T02:37:34;2.53;;;2.07;;
16689;SDS011;8458;52.220;9.884;2023-08-06T02:40:00;3.10;;;2.20;;
16689;SDS011;8458;52.220;9.884;2023-08-06T02:42:28;4.83;;;1.90;;
16689;SDS011;8458;52.220;9.884;2023-08-06T02:44:54;2.23;;;2.03;;
16689;SDS011;8458;52.220;9.884;2023-08-06T02:47:22;2.17;;;1.93;;
16689;SDS011;8458;52.220;9.884;2023-08-06T02:49:49;2.23;;;2.00;;
16689;SDS011;8458;52.220;9.884;2023-08-06T02:52:15;2.37;;;2.17;;
16689;SDS011;8458;52.220;9.884;2023-08-06T02:54:42;3.37;;;2.00;;
16689;SDS011;8458;52.220;9.884;2023-08-06T02:57:08;2.03;;;1.83;;
16689;SDS011;8458;52.220;9.884;2023-08-06T02:59:35;2.17;;;1.73;;
16689;SDS011;8458;52.220;9.884;2023-08-06T03:02:01;3.23;;;2.10;;
16689;SDS011;8458;52.220;9.884;2023-08-06T03:04:29;2.13;;;2.00;;
16689;SDS011;8458;52.220;9.884;2023-08-06T03:06:56;2.43;;;2.23;;
16689;SDS011;8458;52.220;9.884;2023-08-06T03:09:22;2.20;;;1.97;;
16689;SDS011;8458;52.220;9.884;2023-08-06T03:11:49;2.63;;;2.40;;
16689;SDS011;8458;52.220;9.884;2023-08-06T03:14:15;2.40;;;2.20;;
16689;SDS011;8458;52.220;9.884;2023-08-06T03:16:41;2.80;;;2.00;;
16689;SDS011;8458;52.220;9.884;2023-08-06T03:19:08;2.70;;;2.30;;
16689;SDS011;8458;52.220;9.884;2023-08-06T03:21:36;2.30;;;2.10;;
16689;SDS011;8458;52.220;9.884;2023-08-06T03:24:02;2.87;;;2.67;;
16689;SDS011;8458;52.220;9.884;2023-08-06T03:26:29;2.47;;;2.07;;
16689;SDS011;8458;52.220;9.884;2023-08-06T03:28:55;3.93;;;2.23;;
16689;SDS011;8458;52.220;9.884;2023-08-06T03:31:21;4.13;;;2.43;;
16689;SDS011;8458;52.220;9.884;2023-08-06T03:33:48;3.40;;;2.20;;
16689;SDS011;8458;52.220;9.884;2023-08-06T03:36:14;2.77;;;2.17;;
16689;SDS011;8458;52.220;9.884;2023-08-06T03:38:42;2.30;;;2.17;;
16689;SDS011;8458;52.220;9.884;2023-08-06T03:41:09;2.63;;;2.00;;
16689;SDS011;8458;52.220;9.884;2023-08-06T03:43:35;2.37;;;2.13;;
16689;SDS011;8458;52.220;9.884;2023-08-06T03:46:02;2.53;;;2.33;;
16689;SDS011;8458;52.220;9.884;2023-08-06T03:48:28;3.23;;;2.20;;
16689;SDS011;8458;52.220;9.884;2023-08-06T03:50:54;3.37;;;2.27;;
16689;SDS011;8458;52.220;9.884;2023-08-06T03:53:22;3.50;;;2.40;;
16689;SDS011;8458;52.220;9.884;2023-08-06T03:55:49;3.13;;;2.60;;
16689;SDS011;8458;52.220;9.884;2023-08-06T03:58:16;6.07;;;2.50;;
16689;SDS011;8458;52.220;9.884;2023-08-06T04:00:42;4.50;;;2.43;;
16689;SDS011;8458;52.220;9.884;2023-08-06T04:03:09;6.07;;;2.83;;
16689;SDS011;8458;52.220;9.884;2023-08-06T04:05:35;4.40;;;2.53;;
16689;SDS011;8458;52.220;9.884;2023-08-06T04:08:02;4.73;;;2.20;;
16689;SDS011;8458;52.220;9.884;2023-08-06T04:10:28;5.13;;;2.70;;
16689;SDS011;8458;52.220;9.884;2023-08-06T04:12:56;3.53;;;2.83;;
16689;SDS011;8458;52.220;9.884;2023-08-06T04:15:22;3.53;;;3.30;;
16689;SDS011;8458;52.220;9.884;2023-08-06T04:17:49;4.07;;;3.30;;
16689;SDS011;8458;52.220;9.884;2023-08-06T04:20:15;4.40;;;4.00;;
16689;SDS011;8458;52.220;9.884;2023-08-06T04:22:42;3.33;;;3.13;;
16689;SDS011;8458;52.220;9.884;2023-08-06T04:25:09;3.77;;;3.47;;
16689;SDS011;8458;52.220;9.884;2023-08-06T04:27:35;4.03;;;3.70;;
16689;SDS011;8458;52.220;9.884;2023-08-06T04:30:08;6.97;;;3.30;;
16689;SDS011;8458;52.220;9.884;2023-08-06T04:32:36;6.13;;;3.90;;
16689;SDS011;8458;52.220;9.884;2023-08-06T04:35:03;4.10;;;3.73;;
16689;SDS011;8458;52.220;9.884;2023-08-06T04:37:30;4.17;;;3.77;;
16689;SDS011;8458;52.220;9.884;2023-08-06T04:39:56;6.33;;;3.40;;
16689;SDS011;8458;52.220;9.884;2023-08-06T04:42:23;4.33;;;4.03;;
16689;SDS011;8458;52.220;9.884;2023-08-06T04:44:50;5.27;;;4.00;;
16689;SDS011;8458;52.220;9.884;2023-08-06T04:47:18;3.97;;;3.63;;
16689;SDS011;8458;52.220;9.884;2023-08-06T04:49:44;3.87;;;3.50;;
16689;SDS011;8458;52.220;9.884;2023-08-06T04:52:10;4.57;;;4.13;;
16689;SDS011;8458;52.220;9.884;2023-08-06T04:54:37;4.50;;;4.10;;
16689;SDS011;8458;52.220;9.884;2023-08-06T04:57:04;5.07;;;4.00;;
16689;SDS011;8458;52.220;9.884;2023-08-06T04:59:31;4.27;;;3.63;;
16689;SDS011;8458;52.220;9.884;2023-08-06T05:01:57;4.47;;;4.17;;
16689;SDS011;8458;52.220;9.884;2023-08-06T05:04:25;4.73;;;4.33;;
16689;SDS011;8458;52.220;9.884;2023-08-06T05:06:51;7.63;;;4.80;;
16689;SDS011;8458;52.220;9.884;2023-08-06T05:09:18;4.87;;;4.53;;
16689;SDS011;8458;52.220;9.884;2023-08-06T05:11:45;5.00;;;4.50;;
16689;SDS011;8458;52.220;9.884;2023-08-06T05:14:12;4.57;;;4.30;;
16689;SDS011;8458;52.220;9.884;2023-08-06T05:16:38;4.90;;;4.50;;
16689;SDS011;8458;52.220;9.884;2023-08-06T05:19:05;4.90;;;4.50;;
16689;SDS011;8458;52.220;9.884;2023-08-06T05:21:33;4.73;;;4.43;;
16689;SDS011;8458;52.220;9.884;2023-08-06T05:23:59;4.63;;;4.23;;
16689;SDS011;8458;52.220;9.884;2023-08-06T05:26:26;4.67;;;3.97;;
16689;SDS011;8458;52.220;9.884;2023-08-06T05:28:52;4.70;;;4.30;;
16689;SDS011;8458;52.220;9.884;2023-08-06T05:31:19;3.97;;;3.67;;
16689;SDS011;8458;52.220;9.884;2023-08-06T05:33:45;3.50;;;3.30;;
16689;SDS011;8458;52.220;9.884;2023-08-06T05:36:11;4.10;;;3.80;;
16689;SDS011;8458;52.220;9.884;2023-08-06T05:38:39;6.40;;;3.67;;
16689;SDS011;8458;52.220;9.884;2023-08-06T05:41:06;4.17;;;3.40;;
16689;SDS011;8458;52.220;9.884;2023-08-06T05:43:33;5.07;;;3.43;;
16689;SDS011;8458;52.220;9.884;2023-08-06T05:45:59;4.80;;;3.57;;
16689;SDS011;8458;52.220;9.884;2023-08-06T05:48:25;5.70;;;3.80;;
16689;SDS011;8458;52.220;9.884;2023-08-06T05:50:53;3.27;;;2.97;;
16689;SDS011;8458;52.220;9.884;2023-08-06T05:53:19;3.50;;;3.30;;
16689;SDS011;8458;52.220;9.884;2023-08-06T05:55:47;3.40;;;3.10;;
16689;SDS011;8458;52.220;9.884;2023-08-06T05:58:14;3.07;;;2.87;;
16689;SDS011;8458;52.220;9.884;2023-08-06T06:00:40;2.57;;;2.37;;
16689;SDS011;8458;52.220;9.884;2023-08-06T06:03:07;2.70;;;2.30;;
16689;SDS011;8458;52.220;9.884;2023-08-06T06:05:33;3.20;;;2.47;;
16689;SDS011;8458;52.220;9.884;2023-08-06T06:08:00;2.50;;;2.30;;
16689;SDS011;8458;52.220;9.884;2023-08-06T06:10:26;2.67;;;2.13;;
16689;SDS011;8458;52.220;9.884;2023-08-06T06:12:54;2.50;;;2.30;;
16689;SDS011;8458;52.220;9.884;2023-08-06T06:15:20;2.80;;;2.60;;
16689;SDS011;8458;52.220;9.884;2023-08-06T06:17:47;2.57;;;2.37;;
16689;SDS011;8458;52.220;9.884;2023-08-06T06:20:13;2.93;;;2.07;;
16689;SDS011;8458;52.220;9.884;2023-08-06T06:22:40;2.50;;;2.17;;
16689;SDS011;8458;52.220;9.884;2023-08-06T06:25:06;2.20;;;2.00;;
16689;SDS011;8458;52.220;9.884;2023-08-06T06:27:34;2.30;;;2.10;;
16689;SDS011;8458;52.220;9.884;2023-08-06T06:30:02;3.53;;;2.37;;
16689;SDS011;8458;52.220;9.884;2023-08-06T06:32:29;2.67;;;2.47;;
16689;SDS011;8458;52.220;9.884;2023-08-06T06:34:56;2.57;;;2.47;;
16689;SDS011;8458;52.220;9.884;2023-08-06T06:37:23;3.00;;;2.80;;
16689;SDS011;8458;52.220;9.884;2023-08-06T06:39:50;4.60;;;2.70;;
16689;SDS011;8458;52.220;9.884;2023-08-06T06:42:16;2.60;;;2.40;;
16689;SDS011;8458;52.220;9.884;2023-08-06T06:44:43;2.60;;;2.40;;
16689;SDS011;8458;52.220;9.884;2023-08-06T06:47:11;2.30;;;2.20;;
16689;SDS011;8458;52.220;9.884;2023-08-06T06:49:37;2.77;;;2.57;;
16689;SDS011;8458;52.220;9.884;2023-08-06T06:52:04;2.30;;;2.10;;
16689;SDS011;8458;52.220;9.884;2023-08-06T06:54:31;2.50;;;2.33;;
16689;SDS011;8458;52.220;9.884;2023-08-06T06:56:57;2.20;;;2.00;;
16689;SDS011;8458;52.220;9.884;2023-08-06T06:59:24;2.23;;;2.13;;
16689;SDS011;8458;52.220;9.884;2023-08-06T07:01:50;2.10;;;1.90;;
16689;SDS011;8458;52.220;9.884;2023-08-06T07:04:18;2.00;;;1.80;;
16689;SDS011;8458;52.220;9.884;2023-08-06T07:06:45;1.70;;;1.60;;
16689;SDS011;8458;52.220;9.884;2023-08-06T07:09:11;1.63;;;1.53;;
16689;SDS011;8458;52.220;9.884;2023-08-06T07:11:38;2.40;;;1.50;;
16689;SDS011;8458;52.220;9.884;2023-08-06T07:14:04;1.50;;;1.40;;
16689;SDS011;8458;52.220;9.884;2023-08-06T07:16:30;1.60;;;1.50;;
16689;SDS011;8458;52.220;9.884;2023-08-06T07:18:58;1.33;;;1.23;;
16689;SDS011;8458;52.220;9.884;2023-08-06T07:21:26;1.60;;;1.50;;
16689;SDS011;8458;52.220;9.884;2023-08-06T07:23:53;1.43;;;1.30;;
16689;SDS011;8458;52.220;9.884;2023-08-06T07:26:19;1.50;;;1.40;;
16689;SDS011;8458;52.220;9.884;2023-08-06T07:28:45;1.40;;;1.30;;
16689;SDS011;8458;52.220;9.884;2023-08-06T07:31:12;2.00;;;1.50;;
16689;SDS011;8458;52.220;9.884;2023-08-06T07:33:38;1.77;;;1.20;;
16689;SDS011;8458;52.220;9.884;2023-08-06T07:36:08;1.53;;;1.30;;
16689;SDS011;8458;52.220;9.884;2023-08-06T07:38:37;1.20;;;1.00;;
16689;SDS011;8458;52.220;9.884;2023-08-06T07:41:04;1.27;;;1.17;;
16689;SDS011;8458;52.220;9.884;2023-08-06T07:43:31;1.20;;;1.10;;
16689;SDS011;8458;52.220;9.884;2023-08-06T07:45:57;1.30;;;1.20;;
16689;SDS011;8458;52.220;9.884;2023-08-06T07:48:25;1.20;;;1.10;;
16689;SDS011;8458;52.220;9.884;2023-08-06T07:50:51;1.10;;;1.10;;
16689;SDS011;8458;52.220;9.884;2023-08-06T07:53:18;1.20;;;1.10;;
16689;SDS011;8458;52.220;9.884;2023-08-06T07:55:48;2.00;;;1.17;;
16689;SDS011;8458;52.220;9.884;2023-08-06T07:58:16;1.47;;;1.10;;
16689;SDS011;8458;52.220;9.884;2023-08-06T08:00:42;1.33;;;1.07;;
16689;SDS011;8458;52.220;9.884;2023-08-06T08:03:10;1.50;;;1.40;;
16689;SDS011;8458;52.220;9.884;2023-08-06T08:05:37;1.40;;;1.30;;
16689;SDS011;8458;52.220;9.884;2023-08-06T08:08:03;1.30;;;1.20;;
16689;SDS011;8458;52.220;9.884;2023-08-06T08:10:30;1.30;;;1.20;;
16689;SDS011;8458;52.220;9.884;2023-08-06T08:12:58;1.33;;;1.23;;
16689;SDS011;8458;52.220;9.884;2023-08-06T08:15:25;1.27;;;1.17;;
16689;SDS011;8458;52.220;9.884;2023-08-06T08:17:52;1.47;;;1.30;;
16689;SDS011;8458;52.220;9.884;2023-08-06T08:20:18;1.23;;;1.13;;
16689;SDS011;8458;52.220;9.884;2023-08-06T08:22:45;1.63;;;1.30;;
16689;SDS011;8458;52.220;9.884;2023-08-06T08:25:11;1.40;;;1.30;;
16689;SDS011;8458;52.220;9.884;2023-08-06T08:27:37;1.47;;;1.37;;
16689;SDS011;8458;52.220;9.884;2023-08-06T08:30:06;1.20;;;1.10;;
16689;SDS011;8458;52.220;9.884;2023-08-06T08:32:33;1.43;;;1.33;;
16689;SDS011;8458;52.220;9.884;2023-08-06T08:35:00;2.83;;;1.30;;
16689;SDS011;8458;52.220;9.884;2023-08-06T08:37:26;1.20;;;1.20;;
16689;SDS011;8458;52.220;9.884;2023-08-06T08:39:52;1.93;;;1.30;;
16689;SDS011;8458;52.220;9.884;2023-08-06T08:42:19;1.73;;;1.40;;
16689;SDS011;8458;52.220;9.884;2023-08-06T08:44:46;1.50;;;1.20;;
16689;SDS011;8458;52.220;9.884;2023-08-06T08:47:14;1.43;;;1.33;;
16689;SDS011;8458;52.220;9.884;2023-08-06T08:49:41;1.30;;;1.20;;
16689;SDS011;8458;52.220;9.884;2023-08-06T08:52:09;1.30;;;1.20;;
16689;SDS011;8458;52.220;9.884;2023-08-06T08:54:38;1.20;;;1.10;;
16689;SDS011;8458;52.220;9.884;2023-08-06T08:57:04;1.00;;;1.00;;
16689;SDS011;8458;52.220;9.884;2023-08-06T08:59:32;1.43;;;1.33;;
16689;SDS011;8458;52.220;9.884;2023-08-06T09:02:00;1.00;;;1.00;;
16689;SDS011;8458;52.220;9.884;2023-08-06T09:04:29;1.13;;;1.13;;
16689;SDS011;8458;52.220;9.884;2023-08-06T09:06:56;1.40;;;1.30;;
16689;SDS011;8458;52.220;9.884;2023-08-06T09:09:26;1.23;;;1.20;;
16689;SDS011;8458;52.220;9.884;2023-08-06T09:11:58;1.20;;;1.07;;
16689;SDS011;8458;52.220;9.884;2023-08-06T09:14:27;1.40;;;1.10;;
16689;SDS011;8458;52.220;9.884;2023-08-06T09:16:53;2.87;;;1.10;;
16689;SDS011;8458;52.220;9.884;2023-08-06T09:19:20;1.03;;;1.03;;
16689;SDS011;8458;52.220;9.884;2023-08-06T09:21:50;1.40;;;1.30;;
16689;SDS011;8458;52.220;9.884;2023-08-06T09:24:17;1.30;;;1.20;;
16689;SDS011;8458;52.220;9.884;2023-08-06T09:26:44;2.27;;;1.30;;
16689;SDS011;8458;52.220;9.884;2023-08-06T09:29:11;2.83;;;1.40;;
16689;SDS011;8458;52.220;9.884;2023-08-06T09:31:41;1.30;;;1.20;;
16689;SDS011;8458;52.220;9.884;2023-08-06T09:34:11;1.50;;;1.40;;
16689;SDS011;8458;52.220;9.884;2023-08-06T09:36:41;1.20;;;1.10;;
16689;SDS011;8458;52.220;9.884;2023-08-06T09:39:13;1.47;;;1.30;;
16689;SDS011;8458;52.220;9.884;2023-08-06T09:41:40;1.20;;;1.10;;
16689;SDS011;8458;52.220;9.884;2023-08-06T09:44:12;1.27;;;1.17;;
16689;SDS011;8458;52.220;9.884;2023-08-06T09:46:41;1.20;;;1.10;;
16689;SDS011;8458;52.220;9.884;2023-08-06T09:49:08;1.60;;;1.10;;
16689;SDS011;8458;52.220;9.884;2023-08-06T09:51:35;1.40;;;1.30;;
16689;SDS011;8458;52.220;9.884;2023-08-06T09:54:04;1.20;;;1.10;;
16689;SDS011;8458;52.220;9.884;2023-08-06T09:56:34;1.27;;;1.10;;
16689;SDS011;8458;52.220;9.884;2023-08-06T09:59:03;1.43;;;1.20;;
16689;SDS011;8458;52.220;9.884;2023-08-06T10:01:30;0.90;;;0.90;;
16689;SDS011;8458;52.220;9.884;2023-08-06T10:03:58;1.33;;;0.90;;
16689;SDS011;8458;52.220;9.884;2023-08-06T10:06:26;1.00;;;1.00;;
16689;SDS011;8458;52.220;9.884;2023-08-06T10:08:54;0.97;;;0.90;;
16689;SDS011;8458;52.220;9.884;2023-08-06T10:11:21;1.37;;;1.10;;
16689;SDS011;8458;52.220;9.884;2023-08-06T10:13:50;1.20;;;1.10;;
16689;SDS011;8458;52.220;9.884;2023-08-06T10:16:21;1.47;;;0.97;;
16689;SDS011;8458;52.220;9.884;2023-08-06T10:18:48;1.00;;;1.00;;
16689;SDS011;8458;52.220;9.884;2023-08-06T10:21:16;1.33;;;1.10;;
16689;SDS011;8458;52.220;9.884;2023-08-06T10:23:43;0.83;;;0.83;;
16689;SDS011;8458;52.220;9.884;2023-08-06T10:26:09;1.20;;;1.10;;
16689;SDS011;8458;52.220;9.884;2023-08-06T10:28:36;1.03;;;0.90;;
16689;SDS011;8458;52.220;9.884;2023-08-06T10:31:04;0.90;;;0.90;;
16689;SDS011;8458;52.220;9.884;2023-08-06T10:33:41;1.20;;;0.90;;
16689;SDS011;8458;52.220;9.884;2023-08-06T10:36:09;1.67;;;1.10;;
16689;SDS011;8458;52.220;9.884;2023-08-06T10:38:43;0.90;;;0.90;;
16689;SDS011;8458;52.220;9.884;2023-08-06T10:41:14;1.30;;;1.07;;
16689;SDS011;8458;52.220;9.884;2023-08-06T10:43:42;1.17;;;0.87;;
16689;SDS011;8458;52.220;9.884;2023-08-06T10:46:11;1.40;;;1.10;;
16689;SDS011;8458;52.220;9.884;2023-08-06T10:48:49;1.43;;;0.83;;
16689;SDS011;8458;52.220;9.884;2023-08-06T10:51:16;0.97;;;0.80;;
16689;SDS011;8458;52.220;9.884;2023-08-06T10:53:42;1.43;;;0.90;;
16689;SDS011;8458;52.220;9.884;2023-08-06T10:56:13;1.57;;;0.90;;
16689;SDS011;8458;52.220;9.884;2023-08-06T10:58:40;1.23;;;0.90;;
16689;SDS011;8458;52.220;9.884;2023-08-06T11:01:07;2.10;;;0.90;;
16689;SDS011;8458;52.220;9.884;2023-08-06T11:03:35;0.90;;;0.90;;
16689;SDS011;8458;52.220;9.884;2023-08-06T11:06:02;0.87;;;0.80;;
16689;SDS011;8458;52.220;9.884;2023-08-06T11:08:33;0.90;;;0.90;;
16689;SDS011;8458;52.220;9.884;2023-08-06T11:13:45;0.90;;;0.80;;
16689;SDS011;8458;52.220;9.884;2023-08-06T11:16:13;0.73;;;0.73;;
16689;SDS011;8458;52.220;9.884;2023-08-06T11:18:41;1.00;;;0.90;;
16689;SDS011;8458;52.220;9.884;2023-08-06T11:21:08;1.10;;;0.90;;
16689;SDS011;8458;52.220;9.884;2023-08-06T11:23:36;0.80;;;0.80;;
16689;SDS011;8458;52.220;9.884;2023-08-06T11:26:03;0.80;;;0.80;;
16689;SDS011;8458;52.220;9.884;2023-08-06T11:28:30;0.97;;;0.80;;
16689;SDS011;8458;52.220;9.884;2023-08-06T11:30:57;1.37;;;0.80;;
16689;SDS011;8458;52.220;9.884;2023-08-06T11:33:27;0.80;;;0.70;;
16689;SDS011;8458;52.220;9.884;2023-08-06T11:35:56;1.30;;;0.90;;
16689;SDS011;8458;52.220;9.884;2023-08-06T11:38:24;0.80;;;0.80;;
16689;SDS011;8458;52.220;9.884;2023-08-06T11:40:51;0.80;;;0.80;;
16689;SDS011;8458;52.220;9.884;2023-08-06T11:43:17;0.70;;;0.70;;
16689;SDS011;8458;52.220;9.884;2023-08-06T11:45:45;0.97;;;0.70;;
16689;SDS011;8458;52.220;9.884;2023-08-06T11:48:12;0.80;;;0.80;;
16689;SDS011;8458;52.220;9.884;2023-08-06T11:50:38;0.93;;;0.70;;
16689;SDS011;8458;52.220;9.884;2023-08-06T11:53:06;0.80;;;0.80;;
16689;SDS011;8458;52.220;9.884;2023-08-06T11:55:33;1.10;;;0.70;;
16689;SDS011;8458;52.220;9.884;2023-08-06T11:58:02;0.98;;;0.80;;
16689;SDS011;8458;52.220;9.884;2023-08-06T12:00:30;0.90;;;0.90;;
16689;SDS011;8458;52.220;9.884;2023-08-06T12:02:56;1.00;;;0.90;;
16689;SDS011;8458;52.220;9.884;2023-08-06T12:05:23;0.83;;;0.83;;
16689;SDS011;8458;52.220;9.884;2023-08-06T12:07:55;1.00;;;0.85;;
16689;SDS011;8458;52.220;9.884;2023-08-06T12:10:25;1.00;;;0.80;;
16689;SDS011;8458;52.220;9.884;2023-08-06T12:12:53;0.70;;;0.70;;
16689;SDS011;8458;52.220;9.884;2023-08-06T12:15:19;0.73;;;0.73;;
16689;SDS011;8458;52.220;9.884;2023-08-06T12:17:46;0.70;;;0.70;;
16689;SDS011;8458;52.220;9.884;2023-08-06T12:20:13;0.82;;;0.77;;
16689;SDS011;8458;52.220;9.884;2023-08-06T12:22:41;0.80;;;0.80;;
16689;SDS011;8458;52.220;9.884;2023-08-06T12:25:09;1.30;;;0.90;;
16689;SDS011;8458;52.220;9.884;2023-08-06T12:27:39;0.80;;;0.80;;
16689;SDS011;8458;52.220;9.884;2023-08-06T12:30:07;1.38;;;0.90;;
16689;SDS011;8458;52.220;9.884;2023-08-06T12:32:33;0.85;;;0.77;;
16689;SDS011;8458;52.220;9.884;2023-08-06T12:35:01;0.70;;;0.70;;
16689;SDS011;8458;52.220;9.884;2023-08-06T12:37:28;0.80;;;0.80;;
16689;SDS011;8458;52.220;9.884;2023-08-06T12:39:54;1.38;;;0.80;;
16689;SDS011;8458;52.220;9.884;2023-08-06T12:42:21;0.95;;;0.95;;
16689;SDS011;8458;52.220;9.884;2023-08-06T12:44:49;0.82;;;0.75;;
16689;SDS011;8458;52.220;9.884;2023-08-06T12:47:15;1.10;;;0.90;;
16689;SDS011;8458;52.220;9.884;2023-08-06T12:49:42;0.82;;;0.82;;
16689;SDS011;8458;52.220;9.884;2023-08-06T12:52:08;1.77;;;0.95;;
16689;SDS011;8458;52.220;9.884;2023-08-06T12:54:37;0.90;;;0.90;;
16689;SDS011;8458;52.220;9.884;2023-08-06T12:57:04;1.08;;;0.98;;
16689;SDS011;8458;52.220;9.884;2023-08-06T12:59:31;1.00;;;1.00;;
16689;SDS011;8458;52.220;9.884;2023-08-06T13:02:00;1.30;;;1.20;;
16689;SDS011;8458;52.220;9.884;2023-08-06T13:04:27;1.15;;;1.00;;
16689;SDS011;8458;52.220;9.884;2023-08-06T13:06:54;1.20;;;1.10;;
16689;SDS011;8458;52.220;9.884;2023-08-06T13:09:20;1.20;;;1.10;;
16689;SDS011;8458;52.220;9.884;2023-08-06T13:11:46;1.20;;;1.10;;
16689;SDS011;8458;52.220;9.884;2023-08-06T13:14:15;1.15;;;1.10;;
16689;SDS011;8458;52.220;9.884;2023-08-06T13:16:42;1.20;;;1.10;;
16689;SDS011;8458;52.220;9.884;2023-08-06T13:19:11;1.00;;;1.00;;
16689;SDS011;8458;52.220;9.884;2023-08-06T13:21:57;1.00;;;0.98;;
16689;SDS011;8458;52.220;9.884;2023-08-06T13:24:25;1.10;;;1.00;;
16689;SDS011;8458;52.220;9.884;2023-08-06T13:26:52;1.33;;;1.17;;
16689;SDS011;8458;52.220;9.884;2023-08-06T13:29:19;1.27;;;1.17;;
16689;SDS011;8458;52.220;9.884;2023-08-06T13:31:46;1.30;;;1.20;;
16689;SDS011;8458;52.220;9.884;2023-08-06T13:34:13;1.42;;;1.33;;
16689;SDS011;8458;52.220;9.884;2023-08-06T13:36:41;1.00;;;1.00;;
16689;SDS011;8458;52.220;9.884;2023-08-06T13:39:08;1.70;;;1.10;;
16689;SDS011;8458;52.220;9.884;2023-08-06T13:41:34;1.75;;;1.27;;
16689;SDS011;8458;52.220;9.884;2023-08-06T13:44:01;1.77;;;1.10;;
16689;SDS011;8458;52.220;9.884;2023-08-06T13:46:27;1.50;;;1.17;;
16689;SDS011;8458;52.220;9.884;2023-08-06T13:48:54;1.35;;;1.25;;
16689;SDS011;8458;52.220;9.884;2023-08-06T13:51:22;1.50;;;1.20;;
16689;SDS011;8458;52.220;9.884;2023-08-06T13:53:48;2.50;;;1.40;;
16689;SDS011;8458;52.220;9.884;2023-08-06T13:56:14;1.40;;;1.30;;
16689;SDS011;8458;52.220;9.884;2023-08-06T13:58:42;1.20;;;1.10;;
16689;SDS011;8458;52.220;9.884;2023-08-06T14:01:09;1.53;;;1.20;;
16689;SDS011;8458;52.220;9.884;2023-08-06T14:03:38;1.20;;;1.10;;
16689;SDS011;8458;52.220;9.884;2023-08-06T14:06:04;1.17;;;1.17;;
16689;SDS011;8458;52.220;9.884;2023-08-06T14:08:32;1.20;;;1.10;;
16689;SDS011;8458;52.220;9.884;2023-08-06T14:10:58;1.27;;;1.20;;
16689;SDS011;8458;52.220;9.884;2023-08-06T14:13:25;1.23;;;1.23;;
16689;SDS011;8458;52.220;9.884;2023-08-06T14:15:51;1.30;;;1.20;;
16689;SDS011;8458;52.220;9.884;2023-08-06T14:18:18;1.33;;;1.27;;
16689;SDS011;8458;52.220;9.884;2023-08-06T14:20:44;1.30;;;1.20;;
16689;SDS011;8458;52.220;9.884;2023-08-06T14:23:11;1.43;;;1.40;;
16689;SDS011;8458;52.220;9.884;2023-08-06T14:25:39;1.20;;;1.03;;
16689;SDS011;8458;52.220;9.884;2023-08-06T14:28:05;1.30;;;1.20;;
16689;SDS011;8458;52.220;9.884;2023-08-06T14:30:32;1.27;;;1.17;;
16689;SDS011;8458;52.220;9.884;2023-08-06T14:32:59;1.20;;;1.10;;
16689;SDS011;8458;52.220;9.884;2023-08-06T14:35:26;1.67;;;1.30;;
16689;SDS011;8458;52.220;9.884;2023-08-06T14:37:53;1.37;;;1.27;;
16689;SDS011;8458;52.220;9.884;2023-08-06T14:40:20;1.30;;;1.27;;
16689;SDS011;8458;52.220;9.884;2023-08-06T14:42:48;1.30;;;1.20;;
16689;SDS011;8458;52.220;9.884;2023-08-06T14:45:14;1.30;;;1.20;;
16689;SDS011;8458;52.220;9.884;2023-08-06T14:47:40;1.40;;;1.30;;
16689;SDS011;8458;52.220;9.884;2023-08-06T14:50:07;1.23;;;1.23;;
16689;SDS011;8458;52.220;9.884;2023-08-06T14:52:34;1.53;;;1.30;;
16689;SDS011;8458;52.220;9.884;2023-08-06T14:55:01;1.40;;;1.30;;
16689;SDS011;8458;52.220;9.884;2023-08-06T14:57:28;1.40;;;1.30;;
16689;SDS011;8458;52.220;9.884;2023-08-06T14:59:56;1.40;;;1.30;;
16689;SDS011;8458;52.220;9.884;2023-08-06T15:02:23;1.30;;;1.30;;